createdAt,value
2022-11-14T00:00:29.205Z,9.15
2022-11-14T00:02:59.332Z,8.95
2022-11-14T00:05:26.353Z,9.20
2022-11-14T00:07:53.175Z,9.07
2022-11-14T00:10:20.246Z,9.48
2022-11-14T00:12:46.956Z,9.32
2022-11-14T00:15:13.978Z,8.73
2022-11-14T00:17:40.751Z,9.45
2022-11-14T00:20:08.918Z,9.00
2022-11-14T00:22:35.773Z,9.23
2022-11-14T00:25:02.407Z,9.25
2022-11-14T00:27:29.063Z,10.10
2022-11-14T00:29:55.704Z,10.13
2022-11-14T00:32:22.549Z,10.48
2022-11-14T00:34:49.883Z,9.70
2022-11-14T00:37:16.485Z,9.95
2022-11-14T00:39:43.366Z,9.60
2022-11-14T00:42:09.963Z,11.20
2022-11-14T00:44:36.545Z,10.30
2022-11-14T00:47:03.180Z,10.65
2022-11-14T00:49:29.781Z,10.25
2022-11-14T00:51:56.355Z,10.27
2022-11-14T00:54:22.958Z,10.20
2022-11-14T00:56:49.584Z,10.45
2022-11-14T00:59:16.184Z,10.45
2022-11-14T01:01:42.773Z,11.05
2022-11-14T01:04:09.516Z,9.80
2022-11-14T01:06:36.116Z,10.50
2022-11-14T01:09:02.899Z,10.85
2022-11-14T01:11:29.499Z,11.43
2022-11-14T01:13:56.108Z,11.60
2022-11-14T01:16:22.772Z,11.05
2022-11-14T01:18:49.513Z,11.20
2022-11-14T01:21:16.558Z,11.73
2022-11-14T01:23:43.231Z,12.10
2022-11-14T01:26:12.674Z,11.73
2022-11-14T01:28:40.415Z,11.98
2022-11-14T01:31:29.675Z,12.25
2022-11-14T01:33:56.244Z,12.10
2022-11-14T01:36:22.943Z,12.73
2022-11-14T01:38:53.759Z,13.00
2022-11-14T01:41:20.915Z,12.63
2022-11-14T01:43:47.945Z,12.95
2022-11-14T01:46:40.369Z,14.50
2022-11-14T01:49:14.962Z,13.23
2022-11-14T01:51:47.094Z,12.93
2022-11-14T01:54:21.166Z,13.20
2022-11-14T01:56:54.730Z,14.70
2022-11-14T01:59:24.962Z,13.57
2022-11-14T02:01:53.181Z,13.45
2022-11-14T02:04:25.506Z,13.90
2022-11-14T02:06:55.985Z,14.10
2022-11-14T02:09:23.047Z,14.70
2022-11-14T02:11:51.106Z,14.93
2022-11-14T02:14:17.781Z,15.20
2022-11-14T02:17:00.825Z,14.55
2022-11-14T02:19:50.159Z,14.40
2022-11-14T02:22:16.998Z,15.38
2022-11-14T02:24:44.244Z,15.23
2022-11-14T02:27:12.691Z,16.13
2022-11-14T02:29:39.319Z,14.88
2022-11-14T02:32:10.495Z,15.75
2022-11-14T02:34:38.102Z,15.80
2022-11-14T02:37:04.753Z,16.45
2022-11-14T02:39:31.399Z,14.90
2022-11-14T02:41:58.142Z,16.33
2022-11-14T02:44:24.838Z,16.77
2022-11-14T02:46:51.430Z,16.55
2022-11-14T02:49:18.113Z,15.18
2022-11-14T02:51:44.735Z,16.85
2022-11-14T02:54:11.598Z,17.08
2022-11-14T02:56:38.243Z,16.50
2022-11-14T02:59:04.913Z,17.02
2022-11-14T03:01:31.664Z,17.08
2022-11-14T03:03:58.315Z,16.48
2022-11-14T03:06:25.070Z,16.77
2022-11-14T03:08:51.648Z,17.33
2022-11-14T03:11:18.311Z,17.83
2022-11-14T03:13:44.887Z,16.83
2022-11-14T03:16:13.330Z,18.77
2022-11-14T03:18:40.373Z,17.85
2022-11-14T03:21:12.050Z,15.75
2022-11-14T03:23:39.110Z,17.17
2022-11-14T03:26:08.416Z,17.52
2022-11-14T03:28:36.187Z,17.33
2022-11-14T03:31:03.570Z,17.45
2022-11-14T03:33:30.234Z,16.98
2022-11-14T03:35:56.894Z,17.35
2022-11-14T03:38:23.685Z,18.65
2022-11-14T03:40:50.882Z,17.17
2022-11-14T03:43:19.265Z,18.38
2022-11-14T03:45:46.602Z,17.60
2022-11-14T03:48:13.908Z,17.25
2022-11-14T03:50:41.385Z,18.00
2022-11-14T03:53:08.322Z,17.83
2022-11-14T03:55:34.922Z,16.80
2022-11-14T03:58:01.751Z,16.95
2022-11-14T04:00:28.856Z,17.17
2022-11-14T04:02:56.831Z,18.38
2022-11-14T04:05:24.256Z,16.85
2022-11-14T04:07:51.088Z,18.48
2022-11-14T04:10:18.265Z,17.10
2022-11-14T04:12:49.360Z,17.50
2022-11-14T04:15:16.734Z,17.23
2022-11-14T04:17:44.025Z,16.85
2022-11-14T04:20:11.396Z,17.02
2022-11-14T04:22:38.135Z,17.65
2022-11-14T04:25:05.619Z,18.40
2022-11-14T04:27:32.256Z,18.10
2022-11-14T04:29:59.017Z,17.92
2022-11-14T04:32:25.679Z,17.33
2022-11-14T04:34:52.424Z,17.02
2022-11-14T04:37:18.996Z,17.75
2022-11-14T04:39:45.570Z,17.05
2022-11-14T04:42:12.203Z,17.17
2022-11-14T04:44:38.900Z,15.93
2022-11-14T04:47:05.591Z,17.02
2022-11-14T04:49:32.175Z,16.58
2022-11-14T04:51:58.800Z,16.50
2022-11-14T04:54:25.579Z,16.50
2022-11-14T04:56:52.207Z,16.92
2022-11-14T04:59:21.040Z,17.10
2022-11-14T05:01:48.082Z,16.63
2022-11-14T05:04:14.956Z,15.77
2022-11-14T05:06:41.564Z,17.10
2022-11-14T05:09:08.475Z,17.13
2022-11-14T05:11:35.184Z,15.32
2022-11-14T05:14:01.763Z,16.45
2022-11-14T05:16:28.496Z,14.88
2022-11-14T05:18:55.166Z,16.08
2022-11-14T05:21:22.019Z,16.52
2022-11-14T05:23:48.653Z,15.73
2022-11-14T05:26:17.382Z,15.82
2022-11-14T05:28:44.110Z,15.88
2022-11-14T05:31:13.719Z,15.00
2022-11-14T05:33:40.696Z,15.32
2022-11-14T05:36:10.066Z,14.88
2022-11-14T05:38:37.669Z,15.45
2022-11-14T05:41:12.769Z,15.10
2022-11-14T05:43:39.595Z,14.77
2022-11-14T05:46:09.466Z,15.93
2022-11-14T05:48:36.042Z,14.52
2022-11-14T05:51:04.243Z,15.32
2022-11-14T05:53:33.226Z,14.80
2022-11-14T05:56:05.166Z,15.00
2022-11-14T05:58:33.039Z,14.30
2022-11-14T06:01:17.830Z,14.85
2022-11-14T06:03:46.830Z,14.93
2022-11-14T06:06:19.366Z,14.23
2022-11-14T06:08:46.555Z,15.05
2022-11-14T06:11:20.125Z,14.65
2022-11-14T06:13:47.610Z,15.18
2022-11-14T06:16:17.044Z,14.57
2022-11-14T06:18:43.749Z,14.55
2022-11-14T06:21:16.465Z,14.40
2022-11-14T06:23:44.014Z,13.90
2022-11-14T06:26:26.761Z,13.75
2022-11-14T06:28:53.874Z,13.77
2022-11-14T06:31:21.202Z,13.70
2022-11-14T06:33:48.001Z,14.50
2022-11-14T06:36:15.637Z,13.98
2022-11-14T06:38:43.070Z,14.32
2022-11-14T06:41:12.326Z,14.10
2022-11-14T06:43:41.555Z,12.82
2022-11-14T06:46:10.112Z,14.00
2022-11-14T06:48:37.324Z,13.20
2022-11-14T06:51:05.631Z,13.23
2022-11-14T06:53:34.449Z,13.07
2022-11-14T06:56:03.639Z,12.35
2022-11-14T06:58:35.843Z,13.38
2022-11-14T07:01:15.377Z,13.15
2022-11-14T07:03:43.121Z,12.98
2022-11-14T07:06:11.891Z,13.00
2022-11-14T07:08:38.967Z,12.70
2022-11-14T07:11:08.822Z,13.30
2022-11-14T07:13:36.501Z,12.88
2022-11-14T07:16:04.253Z,12.55
2022-11-14T07:18:33.179Z,12.20
2022-11-14T07:21:02.722Z,12.25
2022-11-14T07:23:30.989Z,12.10
2022-11-14T07:26:07.771Z,12.73
2022-11-14T07:28:40.149Z,11.18
2022-11-14T07:31:09.065Z,11.73
2022-11-14T07:33:36.038Z,10.80
2022-11-14T07:36:02.941Z,11.05
2022-11-14T07:38:31.767Z,10.88
2022-11-14T07:41:01.365Z,10.80
2022-11-14T07:43:28.947Z,11.95
2022-11-14T07:46:13.783Z,11.52
2022-11-14T07:48:40.847Z,11.70
2022-11-14T07:51:10.968Z,12.32
2022-11-14T07:53:37.581Z,11.45
2022-11-14T07:56:11.376Z,11.32
2022-11-14T07:58:39.909Z,11.63
2022-11-14T08:01:09.577Z,11.38
2022-11-14T08:03:37.924Z,10.95
2022-11-14T08:06:10.956Z,11.27
2022-11-14T08:08:37.770Z,10.90
2022-11-14T08:11:05.187Z,11.25
2022-11-14T08:13:33.377Z,9.52
2022-11-14T08:16:09.162Z,11.15
2022-11-14T08:18:38.178Z,11.52
2022-11-14T08:21:05.899Z,10.63
2022-11-14T08:23:32.675Z,11.10
2022-11-14T08:26:00.009Z,11.55
2022-11-14T08:28:27.941Z,10.57
2022-11-14T08:31:01.231Z,10.68
2022-11-14T08:33:28.259Z,11.50
2022-11-14T08:35:55.049Z,10.07
2022-11-14T08:38:21.662Z,10.27
2022-11-14T08:40:51.637Z,10.07
2022-11-14T08:43:18.232Z,9.70
2022-11-14T08:45:44.814Z,11.48
2022-11-14T08:48:11.547Z,10.10
2022-11-14T08:50:38.173Z,10.32
2022-11-14T08:53:04.791Z,11.05
2022-11-14T08:55:31.494Z,10.25
2022-11-14T08:57:58.245Z,10.63
2022-11-14T09:00:24.884Z,11.20
2022-11-14T09:02:51.606Z,10.80
2022-11-14T09:05:18.249Z,9.55
2022-11-14T09:07:44.865Z,9.75
2022-11-14T09:10:11.462Z,11.50
2022-11-14T09:12:38.052Z,9.63
2022-11-14T09:15:05.012Z,10.88
2022-11-14T09:17:31.590Z,10.75
2022-11-14T09:19:58.167Z,10.93
2022-11-14T09:22:24.766Z,9.75
2022-11-14T09:24:52.037Z,10.15
2022-11-14T09:27:18.659Z,9.77
2022-11-14T09:29:45.580Z,10.30
2022-11-14T09:32:12.207Z,11.13
2022-11-14T09:34:42.870Z,9.95
2022-11-14T09:37:09.715Z,10.38
2022-11-14T09:39:40.385Z,10.95
2022-11-14T09:42:30.219Z,10.32
2022-11-14T09:45:02.505Z,10.52
2022-11-14T09:47:42.857Z,10.23
2022-11-14T09:50:27.512Z,12.32
2022-11-14T09:53:00.950Z,10.43
2022-11-14T09:55:37.080Z,10.30
2022-11-14T09:58:05.032Z,11.00
2022-11-14T10:00:50.363Z,11.25
2022-11-14T10:03:43.146Z,11.25
2022-11-14T10:06:33.439Z,11.82
2022-11-14T10:09:16.489Z,12.45
2022-11-14T10:11:51.906Z,11.95
2022-11-14T10:14:57.668Z,11.55
2022-11-14T10:17:39.827Z,10.85
2022-11-14T10:20:18.355Z,9.90
2022-11-14T10:23:08.594Z,11.70
2022-11-14T10:26:08.319Z,12.10
2022-11-14T10:29:05.286Z,12.85
2022-11-14T10:31:47.404Z,11.65
2022-11-14T10:34:47.037Z,12.15
2022-11-14T10:37:23.609Z,12.15
2022-11-14T10:39:53.198Z,11.95
2022-11-14T10:42:39.635Z,11.50
2022-11-14T10:45:32.996Z,11.52
2022-11-14T10:48:10.587Z,11.35
2022-11-14T10:50:52.228Z,11.27
2022-11-14T10:53:47.492Z,12.48
2022-11-14T10:56:15.022Z,10.32
2022-11-14T10:58:48.978Z,11.35
2022-11-14T11:01:35.236Z,13.30
2022-11-14T11:04:24.697Z,11.70
2022-11-14T11:06:54.566Z,11.20
2022-11-14T11:09:47.192Z,10.93
2022-11-14T11:12:44.550Z,10.82
2022-11-14T11:15:16.038Z,10.98
2022-11-14T11:18:03.427Z,11.50
2022-11-14T11:20:38.743Z,10.35
2022-11-14T11:23:09.352Z,11.05
2022-11-14T11:25:38.010Z,11.13
2022-11-14T11:28:13.545Z,10.55
2022-11-14T11:30:54.588Z,10.30
2022-11-14T11:33:21.173Z,10.52
2022-11-14T11:35:54.630Z,10.10
2022-11-14T11:38:23.787Z,11.03
2022-11-14T11:40:54.194Z,10.32
2022-11-14T11:43:44.939Z,11.55
2022-11-14T11:46:39.942Z,10.73
2022-11-14T11:49:17.470Z,12.98
2022-11-14T11:51:46.232Z,11.75
2022-11-14T11:54:21.676Z,11.98
2022-11-14T11:56:54.331Z,10.75
2022-11-14T11:59:33.501Z,12.15
2022-11-14T12:02:17.468Z,11.85
2022-11-14T12:04:44.214Z,11.55
2022-11-14T12:07:16.775Z,12.13
2022-11-14T12:10:09.453Z,12.80
2022-11-14T12:12:33.003Z,12.23
2022-11-14T12:15:29.770Z,12.32
2022-11-14T12:18:15.336Z,10.93
2022-11-14T12:20:48.062Z,11.20
2022-11-14T12:23:26.896Z,12.43
2022-11-14T12:26:06.947Z,12.13
2022-11-14T12:29:01.991Z,12.02
2022-11-14T12:31:33.891Z,14.20
2022-11-14T12:34:05.496Z,15.23
2022-11-14T12:36:34.792Z,17.08
2022-11-14T12:39:02.389Z,17.35
2022-11-14T12:41:32.471Z,19.98
2022-11-14T12:44:28.031Z,22.08
2022-11-14T12:47:06.363Z,23.30
2022-11-14T12:49:58.258Z,22.63
2022-11-14T12:52:49.598Z,22.38
2022-11-14T12:55:24.741Z,20.77
2022-11-14T12:58:08.963Z,19.90
2022-11-14T13:01:03.707Z,18.17
2022-11-14T13:03:45.025Z,16.65
2022-11-14T13:06:26.773Z,18.25
2022-11-14T13:09:22.191Z,18.80
2022-11-14T13:12:07.950Z,19.83
2022-11-14T13:15:16.098Z,17.45
2022-11-14T13:18:01.578Z,18.55
2022-11-14T13:20:53.059Z,17.30
2022-11-14T13:23:25.619Z,18.60
2022-11-14T13:26:10.555Z,19.10
2022-11-14T13:28:54.005Z,21.33
2022-11-14T13:31:23.098Z,18.88
2022-11-14T13:34:00.652Z,18.85
2022-11-14T13:36:50.887Z,21.70
2022-11-14T13:39:31.564Z,21.77
2022-11-14T13:42:21.039Z,22.13
2022-11-14T13:45:05.007Z,21.38
2022-11-14T13:47:49.888Z,22.23
2022-11-14T13:52:56.823Z,21.02
2022-11-14T13:55:47.155Z,21.15
2022-11-14T13:58:19.673Z,22.80
2022-11-14T14:01:05.473Z,23.50
2022-11-14T14:03:40.125Z,23.05
2022-11-14T14:06:47.784Z,22.10
2022-11-14T14:09:40.836Z,21.40
2022-11-14T14:12:31.982Z,22.25
2022-11-14T14:15:26.341Z,20.15
2022-11-14T14:18:24.581Z,23.17
2022-11-14T14:21:17.724Z,21.42
2022-11-14T14:23:58.221Z,21.85
2022-11-14T14:27:02.454Z,22.20
2022-11-14T14:29:29.428Z,22.75
2022-11-14T14:32:13.222Z,22.70
2022-11-14T14:34:41.837Z,23.30
2022-11-14T14:37:19.454Z,23.80
2022-11-14T14:39:57.616Z,20.52
2022-11-14T14:42:27.549Z,23.55
2022-11-14T14:44:58.383Z,23.45
2022-11-14T14:47:39.403Z,23.15
2022-11-14T14:50:24.077Z,21.30
2022-11-14T14:52:58.978Z,21.38
2022-11-14T14:55:32.565Z,21.20
2022-11-14T14:58:27.691Z,21.77
2022-11-14T15:03:23.714Z,20.15
2022-11-14T15:06:01.386Z,20.00
2022-11-14T15:08:29.614Z,18.40
2022-11-14T15:11:00.063Z,19.13
2022-11-14T15:13:28.877Z,18.90
2022-11-14T15:15:55.857Z,19.65
2022-11-14T15:18:31.381Z,19.40
2022-11-14T15:21:13.599Z,20.25
2022-11-14T15:23:40.844Z,19.00
2022-11-14T15:26:18.503Z,19.42
2022-11-14T15:28:45.368Z,18.73
2022-11-14T15:31:22.350Z,18.70
2022-11-14T15:34:06.879Z,16.10
2022-11-14T15:36:33.554Z,19.27
2022-11-14T15:39:06.055Z,18.77
2022-11-14T15:41:33.538Z,20.00
2022-11-14T15:44:03.127Z,20.27
2022-11-14T15:46:45.972Z,19.05
2022-11-14T15:49:26.225Z,18.67
2022-11-14T15:51:58.881Z,20.05
2022-11-14T15:54:28.557Z,19.48
2022-11-14T15:57:01.309Z,19.00
2022-11-14T15:59:30.313Z,19.13
2022-11-14T16:02:02.057Z,19.02
2022-11-14T16:04:33.218Z,19.33
2022-11-14T16:07:00.107Z,17.92
2022-11-14T16:09:27.047Z,19.10
2022-11-14T16:11:53.687Z,18.60
2022-11-14T16:14:20.321Z,19.27
2022-11-14T16:16:47.078Z,18.80
2022-11-14T16:19:15.330Z,19.42
2022-11-14T16:21:42.367Z,17.42
2022-11-14T16:24:15.950Z,18.65
2022-11-14T16:26:42.674Z,18.83
2022-11-14T16:29:09.420Z,17.73
2022-11-14T16:31:37.024Z,18.52
2022-11-14T16:34:03.666Z,18.70
2022-11-14T16:36:31.335Z,18.38
2022-11-14T16:39:01.140Z,18.88
2022-11-14T16:41:28.397Z,18.55
2022-11-14T16:43:56.352Z,19.25
2022-11-14T16:46:24.437Z,19.63
2022-11-14T16:48:51.357Z,19.35
2022-11-14T16:51:46.089Z,18.88
2022-11-14T16:54:05.401Z,17.83
2022-11-14T16:56:32.153Z,17.60
2022-11-14T16:58:58.802Z,18.38
2022-11-14T17:01:25.455Z,18.30
2022-11-14T17:03:52.309Z,18.92
2022-11-14T17:06:19.431Z,18.10
2022-11-14T17:08:45.992Z,18.92
2022-11-14T17:11:12.594Z,21.55
2022-11-14T17:13:39.422Z,21.00
2022-11-14T17:16:06.424Z,19.92
2022-11-14T17:18:38.423Z,20.70
2022-11-14T17:21:07.522Z,19.10
2022-11-14T17:23:34.402Z,18.75
2022-11-14T17:26:06.124Z,19.73
2022-11-14T17:28:34.143Z,18.48
2022-11-14T17:31:05.798Z,19.88
2022-11-14T17:33:32.720Z,19.60
2022-11-14T17:36:07.503Z,19.75
2022-11-14T17:41:01.872Z,18.67
2022-11-14T17:43:30.963Z,20.40
2022-11-14T17:45:59.935Z,18.80
2022-11-14T17:48:26.909Z,19.10
2022-11-14T17:50:54.055Z,18.75
2022-11-14T17:53:21.050Z,19.67
2022-11-14T17:55:53.940Z,18.85
2022-11-14T17:58:20.533Z,18.98
2022-11-14T18:00:47.280Z,19.13
2022-11-14T18:03:14.712Z,20.05
2022-11-14T18:05:41.353Z,17.88
2022-11-14T18:08:08.079Z,18.50
2022-11-14T18:10:35.472Z,18.55
2022-11-14T18:13:04.974Z,18.08
2022-11-14T18:15:32.352Z,18.27
2022-11-14T18:17:59.122Z,18.35
2022-11-14T18:20:26.711Z,17.65
2022-11-14T18:22:53.401Z,19.45
2022-11-14T18:25:20.013Z,18.83
2022-11-14T18:27:46.684Z,17.73
2022-11-14T18:30:39.726Z,17.92
2022-11-14T18:33:00.184Z,17.30
2022-11-14T18:35:26.839Z,17.83
2022-11-14T18:37:53.438Z,17.42
2022-11-14T18:40:21.580Z,18.52
2022-11-14T18:42:49.207Z,19.38
2022-11-14T18:45:15.902Z,17.95
2022-11-14T18:47:42.588Z,16.98
2022-11-14T18:50:09.447Z,16.10
2022-11-14T18:52:37.072Z,16.35
2022-11-14T18:55:07.836Z,16.67
2022-11-14T18:57:34.448Z,15.80
2022-11-14T19:00:01.071Z,15.73
2022-11-14T19:02:27.816Z,15.90
2022-11-14T19:04:54.445Z,16.75
2022-11-14T19:07:21.098Z,15.57
2022-11-14T19:09:47.777Z,14.80
2022-11-14T19:12:22.736Z,15.55
2022-11-14T19:14:50.659Z,16.27
2022-11-14T19:17:22.452Z,16.80
2022-11-14T19:19:49.919Z,16.23
2022-11-14T19:22:17.200Z,15.85
2022-11-14T19:24:47.006Z,15.75
2022-11-14T19:27:14.687Z,21.33
2022-11-14T19:29:41.497Z,19.95
2022-11-14T19:32:08.496Z,19.33
2022-11-14T19:34:35.228Z,19.17
2022-11-14T19:37:01.849Z,18.42
2022-11-14T19:39:28.891Z,17.63
2022-11-14T19:41:55.510Z,20.35
2022-11-14T19:44:22.087Z,18.33
2022-11-14T19:46:48.816Z,18.33
2022-11-14T19:49:15.465Z,17.00
2022-11-14T19:51:42.167Z,16.77
2022-11-14T19:54:09.993Z,16.25
2022-11-14T19:56:36.733Z,14.00
2022-11-14T19:59:09.627Z,14.70
2022-11-14T20:01:41.918Z,14.00
2022-11-14T20:04:12.436Z,14.52
2022-11-14T20:06:39.122Z,14.75
2022-11-14T20:09:08.312Z,14.50
2022-11-14T20:11:35.324Z,11.52
2022-11-14T20:14:02.809Z,11.75
2022-11-14T20:16:32.121Z,12.38
2022-11-14T20:19:00.581Z,10.10
2022-11-14T20:21:29.386Z,11.38
2022-11-14T20:23:56.657Z,11.02
2022-11-14T20:26:23.498Z,9.70
2022-11-14T20:28:52.680Z,9.73
2022-11-14T20:31:25.316Z,10.43
2022-11-14T20:33:53.645Z,9.73
2022-11-14T20:36:23.824Z,10.50
2022-11-14T20:38:52.016Z,9.82
2022-11-14T20:41:19.653Z,10.00
2022-11-14T20:43:46.712Z,9.70
2022-11-14T20:46:19.236Z,10.38
2022-11-14T20:48:46.560Z,11.60
2022-11-14T20:51:14.553Z,12.02
2022-11-14T20:53:42.031Z,10.15
2022-11-14T20:56:09.942Z,12.13
2022-11-14T20:58:36.863Z,13.68
2022-11-14T21:01:04.027Z,14.95
2022-11-14T21:03:31.538Z,14.32
2022-11-14T21:06:00.875Z,14.73
2022-11-14T21:08:29.453Z,14.15
2022-11-14T21:11:02.274Z,15.13
